createdAt,value
2019-05-18T06:52:17.516Z,20.80
2019-05-18T06:57:21.002Z,20.70
2019-05-18T07:02:24.512Z,22.70
2019-05-18T07:07:28.992Z,23.60
2019-05-18T07:12:32.396Z,23.70
2019-05-18T07:17:35.849Z,23.80
2019-05-18T07:22:39.396Z,23.80
2019-05-18T07:27:42.932Z,23.70
2019-05-18T07:32:46.650Z,23.90
2019-05-18T07:37:50.169Z,23.90
2019-05-18T07:42:53.647Z,24.10
2019-05-18T07:47:57.195Z,24.20
2019-05-18T07:53:00.710Z,24.20
2019-05-18T07:58:04.428Z,24.20
2019-05-18T08:03:09.760Z,24.20
2019-05-18T08:08:13.155Z,24.30
2019-05-18T08:13:16.650Z,24.00
2019-05-18T08:18:20.225Z,24.20
2019-05-18T08:23:23.661Z,24.40
2019-05-18T08:28:28.963Z,24.50
2019-05-18T08:33:32.506Z,24.60
2019-05-18T08:38:35.979Z,24.50
2019-05-18T08:43:39.506Z,24.50
2019-05-18T08:48:43.017Z,24.50
2019-05-18T08:53:46.449Z,24.60
2019-05-18T08:58:49.975Z,24.50
2019-05-18T09:03:53.376Z,24.50
2019-05-18T09:08:56.900Z,24.50
2019-05-18T09:14:00.416Z,24.50
2019-05-18T09:19:03.994Z,24.50
2019-05-18T09:24:09.278Z,24.50
2019-05-18T09:29:12.696Z,24.50
2019-05-18T09:34:16.150Z,24.50
2019-05-18T09:39:21.117Z,24.50
2019-05-18T09:44:24.999Z,24.40
2019-05-18T09:49:28.543Z,24.40
2019-05-18T09:54:32.043Z,24.50
2019-05-18T09:59:35.754Z,24.50
2019-05-18T10:04:39.466Z,24.50
2019-05-18T10:09:43.121Z,24.50
2019-05-18T10:14:46.552Z,24.50
2019-05-18T10:19:50.010Z,24.60
2019-05-18T10:24:53.447Z,24.50
2019-05-18T10:29:56.933Z,24.50
2019-05-18T10:35:00.860Z,24.50
2019-05-18T10:40:08.772Z,24.50
2019-05-18T10:45:13.498Z,24.50
2019-05-18T10:50:17.026Z,24.50
2019-05-18T10:55:20.540Z,24.50
2019-05-18T11:00:24.162Z,24.60
2019-05-18T11:05:29.749Z,24.60
2019-05-18T11:10:33.058Z,24.60
2019-05-18T11:15:36.648Z,24.60
2019-05-18T11:20:41.201Z,24.70
2019-05-18T11:25:44.703Z,24.70
2019-05-18T11:30:48.159Z,24.70
2019-05-18T11:35:51.754Z,24.70
2019-05-18T11:40:55.656Z,24.70
2019-05-18T11:45:59.263Z,24.70
2019-05-18T11:51:02.912Z,24.70
2019-05-18T11:56:07.042Z,24.70
2019-05-18T12:01:10.972Z,24.70
2019-05-18T12:06:14.792Z,24.70
2019-05-18T12:11:18.741Z,24.70
2019-05-18T12:16:22.528Z,24.70
2019-05-18T12:21:26.425Z,24.70
2019-05-18T12:26:30.049Z,24.70
2019-05-18T12:31:34.570Z,24.70
2019-05-18T12:36:38.611Z,24.80
2019-05-18T12:41:42.312Z,24.80
2019-05-18T12:46:45.894Z,24.80
2019-05-18T12:51:49.268Z,24.70
2019-05-18T12:56:52.793Z,24.80
2019-05-18T13:01:56.277Z,24.80
2019-05-18T13:06:59.727Z,24.80
2019-05-18T13:12:03.224Z,24.80
2019-05-18T13:17:06.718Z,24.80
2019-05-18T13:22:10.151Z,24.70
2019-05-18T13:27:13.647Z,24.60
2019-05-18T13:32:17.082Z,24.70
2019-05-18T13:37:20.539Z,24.70
2019-05-18T13:42:24.089Z,24.70
2019-05-18T13:47:27.592Z,24.80
2019-05-18T13:52:32.896Z,24.80
2019-05-18T13:57:36.365Z,24.80
2019-05-18T14:02:39.875Z,24.80
2019-05-18T14:07:43.424Z,24.80
2019-05-18T14:12:46.835Z,24.80
2019-05-18T14:17:50.318Z,24.60
2019-05-18T14:22:53.756Z,24.50
2019-05-18T14:27:57.177Z,24.50
2019-05-18T14:33:00.694Z,24.50
2019-05-18T14:38:04.121Z,24.50
2019-05-18T14:43:09.563Z,24.50
2019-05-18T14:48:13.147Z,24.50
2019-05-18T14:53:16.608Z,24.60
2019-05-18T14:58:22.341Z,24.80
2019-05-18T15:03:26.747Z,24.80
2019-05-18T15:08:30.134Z,24.80
2019-05-18T15:13:34.834Z,24.80
2019-05-18T15:18:38.327Z,24.70
2019-05-18T15:23:41.768Z,24.80
2019-05-18T15:28:45.249Z,24.80
2019-05-18T15:33:48.685Z,24.80
2019-05-18T15:38:52.169Z,24.80
2019-05-18T15:43:55.695Z,24.80
2019-05-18T15:48:59.234Z,24.90
2019-05-18T15:54:02.749Z,24.90
2019-05-18T15:59:06.233Z,24.90
2019-05-18T16:04:09.695Z,24.90
2019-05-18T16:09:13.261Z,25.00
2019-05-18T16:14:16.721Z,24.90
2019-05-18T16:19:21.282Z,25.00
2019-05-18T16:24:24.854Z,25.00
2019-05-18T16:29:28.468Z,25.00
2019-05-18T16:34:31.933Z,24.90
2019-05-18T16:39:35.414Z,24.90
2019-05-18T16:44:38.862Z,24.90
2019-05-18T16:49:42.349Z,24.90
2019-05-18T16:54:45.936Z,24.90
2019-05-18T16:59:49.439Z,24.90
2019-05-18T17:04:52.970Z,24.90
2019-05-18T17:09:56.457Z,24.90
2019-05-18T17:15:01.033Z,24.80
2019-05-18T17:20:04.813Z,24.80
2019-05-18T17:25:08.781Z,24.90
2019-05-18T17:30:12.295Z,24.80
2019-05-18T17:35:15.895Z,24.90
2019-05-18T17:40:19.513Z,24.80
2019-05-18T17:45:23.364Z,24.80
2019-05-18T17:50:27.025Z,24.80
2019-05-18T17:55:30.665Z,24.80
2019-05-18T18:00:34.488Z,24.80
2019-05-18T18:05:45.173Z,24.80
2019-05-18T18:10:48.626Z,24.90
2019-05-18T18:15:52.199Z,24.80
2019-05-18T18:20:55.716Z,24.80
2019-05-18T18:25:59.201Z,24.90
2019-05-18T18:31:02.719Z,24.90
2019-05-18T18:36:06.224Z,24.80
2019-05-18T18:41:09.655Z,24.80
2019-05-18T18:46:13.153Z,24.80
2019-05-18T18:51:16.578Z,24.80
2019-05-18T18:56:20.188Z,24.80
2019-05-18T19:01:23.696Z,24.70
2019-05-18T19:06:27.127Z,24.70
2019-05-18T19:11:30.648Z,24.70
2019-05-18T19:16:34.127Z,24.50
2019-05-18T19:21:37.651Z,24.50
2019-05-18T19:26:41.306Z,24.40
2019-05-18T19:31:44.770Z,24.40
2019-05-18T19:36:49.299Z,24.40
2019-05-18T19:41:52.754Z,24.30
2019-05-18T19:46:56.237Z,24.20
2019-05-18T19:51:59.913Z,24.20
2019-05-18T19:57:03.651Z,24.20
2019-05-18T20:02:07.181Z,24.20
2019-05-18T20:07:10.709Z,24.20
2019-05-18T20:12:14.131Z,24.20
2019-05-18T20:17:17.634Z,24.10
2019-05-18T20:22:21.175Z,24.00
2019-05-18T20:27:24.687Z,24.00
2019-05-18T20:32:28.174Z,24.00
2019-05-18T20:37:31.720Z,24.10
2019-05-18T20:42:37.525Z,24.00
2019-05-18T20:47:40.706Z,24.00
2019-05-18T20:52:44.164Z,24.00
2019-05-18T20:57:47.694Z,24.00
2019-05-18T21:02:51.271Z,24.00
2019-05-18T21:07:54.815Z,24.10
2019-05-18T21:12:58.332Z,24.00
2019-05-18T21:18:01.853Z,24.00
2019-05-18T21:23:06.372Z,24.00
2019-05-18T21:28:09.901Z,24.00
2019-05-18T21:33:13.342Z,24.00
2019-05-18T21:38:17.059Z,24.00
2019-05-18T21:43:20.741Z,23.90
2019-05-18T21:48:24.168Z,23.90
2019-05-18T21:53:27.667Z,23.90
2019-05-18T21:58:31.090Z,23.90
2019-05-18T22:03:34.603Z,23.90
2019-05-18T22:08:38.057Z,23.90
2019-05-18T22:13:41.510Z,23.90
2019-05-18T22:18:45.163Z,23.90
2019-05-18T22:23:48.754Z,23.90
2019-05-18T22:28:52.260Z,23.90
2019-05-18T22:33:55.732Z,23.90
2019-05-18T22:38:59.297Z,23.90
2019-05-18T22:44:02.907Z,23.90
2019-05-18T22:49:06.425Z,23.80
2019-05-18T22:54:09.883Z,23.80
2019-05-18T22:59:15.177Z,23.80
2019-05-18T23:04:18.941Z,23.80
2019-05-18T23:09:22.451Z,23.80
2019-05-18T23:14:25.968Z,23.80
2019-05-18T23:19:29.411Z,23.80
2019-05-18T23:24:33.068Z,23.80
2019-05-18T23:29:36.586Z,23.80
2019-05-18T23:34:40.051Z,23.80
2019-05-18T23:39:43.539Z,23.80
2019-05-18T23:44:47.000Z,23.70
2019-05-18T23:49:50.531Z,23.70
2019-05-18T23:54:53.983Z,23.80
2019-05-18T23:59:57.398Z,23.70
